Kendall Alyse — WDE4829 — position and weather

sailwx.info

Track history (hours):
 
Tides and Currents Weather Stations Pressure Air Temp Water Temp Dewpoint Dewpoint Depression Visibility Wind Speed Wind Dir Waves Ship Positions

Kendall Alyse

Owner: The Tug Kendall Alyse, L.L.C., Sugar Land, TX. More information available from US FCC via Universal Licensing System and Coast Guard Vessel Documentation Center.

Last reported at 2018-Jul-16 09:42 UTC. Time now 2018-Jul-16 12:26 UTC.
Position N 29°44' W 095°01'.

Length 20 m.

MMSI: 357358340.

Date/timePositionNaut miles runAvg speedWind from/ knotsBaromVisibWave heightAir tempDewpointWater temp
2018-Jul-16 09:42N 29°44' W 095°01'1 5.0
2018-Jul-16 09:30N 29°44' W 095°03'4 7.0
2018-Jul-16 08:59N 29°46' W 095°06'0 0.9
2018-Jul-16 08:29N 29°46' W 095°06'2 4.4
2018-Jul-16 08:00N 29°45' W 095°04'2 3.9
2018-Jul-16 07:30N 29°44' W 095°02'1 0.3
2018-Jul-16 03:19N 29°44' W 095°01'0 0.2
2018-Jul-16 02:42N 29°44' W 095°01'0 0.0
2018-Jul-15 23:45N 29°44' W 095°01'0 0.0
2018-Jul-15 23:28N 29°44' W 095°01'0 0.0
2018-Jul-15 22:59N 29°44' W 095°01'0 0.0
2018-Jul-15 22:27N 29°44' W 095°01'1 3.2
2018-Jul-15 22:00N 29°44' W 095°03'4 5.8
2018-Jul-15 21:24N 29°46' W 095°06'0 0.0
2018-Jul-15 20:58N 29°46' W 095°06'2 5.1
2018-Jul-15 20:30N 29°45' W 095°04'2 0.7
2018-Jul-15 16:59N 29°44' W 095°01'0 0.0
2018-Jul-15 16:30N 29°44' W 095°01'0 0.0
2018-Jul-15 15:57N 29°44' W 095°01'0 0.0
2018-Jul-15 15:30N 29°44' W 095°01'0 0.0
2018-Jul-15 14:46N 29°44' W 095°01'0 0.0
2018-Jul-15 14:19N 29°44' W 095°01'0 0.0
2018-Jul-15 13:54N 29°44' W 095°01'0 0.0
2018-Jul-15 13:29N 29°44' W 095°01'0 0.0
2018-Jul-15 13:00N 29°44' W 095°01'0 0.0
2018-Jul-15 12:30N 29°44' W 095°01'0 0.0
2018-Jul-15 11:59N 29°44' W 095°01'0 0.0
2018-Jul-15 11:29N 29°44' W 095°01'0 0.0
2018-Jul-15 11:00N 29°44' W 095°01'0 0.0
2018-Jul-15 10:30N 29°44' W 095°01'0 0.0
2018-Jul-15 09:59N 29°44' W 095°01'2 2.7
2018-Jul-15 09:21N 29°44' W 095°03'3 3.3
2018-Jul-15 08:23N 29°46' W 095°06'1 3.8
2018-Jul-15 08:00N 29°46' W 095°04'2 4.6
2018-Jul-15 07:29N 29°44' W 095°03'1 1.5
2018-Jul-15 06:43N 29°44' W 095°01'1 2.3
2018-Jul-15 06:29N 29°43' W 095°01'0 0.5
2018-Jul-15 05:59N 29°43' W 095°01'1 0.9
2018-Jul-15 05:23N 29°44' W 095°01'0 0.0
2018-Jul-15 04:47N 29°44' W 095°01'0 0.0
2018-Jul-15 03:06N 29°44' W 095°01'0 0.0
2018-Jul-14 23:38N 29°44' W 095°01'1 5.4
2018-Jul-14 23:27N 29°44' W 095°02'4 1.6
2018-Jul-14 20:59N 29°46' W 095°06'3 5.5
2018-Jul-14 20:28N 29°44' W 095°04'2 0.7
2018-Jul-14 17:36N 29°44' W 095°01'0 0.2
2018-Jul-14 16:52N 29°44' W 095°01'0 0.1
2018-Jul-14 09:57N 29°44' W 095°02'3 6.6
2018-Jul-14 09:30N 29°46' W 095°04'1 2.8
2018-Jul-14 08:59N 29°46' W 095°06'3 6.4
2018-Jul-14 08:29N 29°44' W 095°03'2 0.1
2018-Jul-13 19:17N 29°44' W 095°01'1 1.0
2018-Jul-13 18:37N 29°44' W 095°02'1 5.3
2018-Jul-13 18:24N 29°44' W 095°03'2 0.8
2018-Jul-13 15:56N 29°46' W 095°05'2 5.4
2018-Jul-13 15:30N 29°44' W 095°03'0 0.1
2018-Jul-13 11:12N 29°44' W 095°03'2 6.5
2018-Jul-13 10:52N 29°46' W 095°05'1 3.0
2018-Jul-13 10:30N 29°46' W 095°06'0 0.4
2018-Jul-13 09:49N 29°46' W 095°06'1 1.1
2018-Jul-13 08:40N 29°46' W 095°05'1 5.3
2018-Jul-13 08:30N 29°46' W 095°05'3 1.2
2018-Jul-13 06:17N 29°44' W 095°08'1 3.9
2018-Jul-13 05:54N 29°45' W 095°06'2 3.8
2018-Jul-13 05:28N 29°46' W 095°05'2 4.0
2018-Jul-13 05:00N 29°44' W 095°03'0 0.0
2018-Jul-12 22:09N 29°44' W 095°03'3 3.7
2018-Jul-12 21:12N 29°46' W 095°06'2 5.8
2018-Jul-12 20:52N 29°45' W 095°04'3 0.4
2018-Jul-12 13:12N 29°44' W 095°01'0 0.2
2018-Jul-12 12:40N 29°44' W 095°01'0 0.1
2018-Jul-12 10:04N 29°44' W 095°02'1 6.8
2018-Jul-12 09:58N 29°44' W 095°02'3 6.3
2018-Jul-12 09:30N 29°46' W 095°05'1 1.4
2018-Jul-12 08:51N 29°46' W 095°06'1 1.3
2018-Jul-12 08:01N 29°45' W 095°06'0 5.8
2018-Jul-12 07:59N 29°45' W 095°06'1 0.4
2018-Jul-12 05:46N 29°44' W 095°07'1 1.0
2018-Jul-12 04:47N 29°44' W 095°08'0 0.7
2018-Jul-12 04:27N 29°44' W 095°08'2 3.4
2018-Jul-12 03:56N 29°45' W 095°06'3 4.9
2018-Jul-12 03:26N 29°47' W 095°04'3 0.5
2018-Jul-11 21:45N 29°45' W 095°06'1 0.2
2018-Jul-11 16:09N 29°44' W 095°08'0 2.4
2018-Jul-11 15:59N 29°44' W 095°07'2 3.6
2018-Jul-11 15:29N 29°45' W 095°06'1 2.7
2018-Jul-11 14:56N 29°47' W 095°05'1 1.1
2018-Jul-11 13:50N 29°47' W 095°04'0 0.0
2018-Jul-11 13:29N 29°47' W 095°04'2 3.0
2018-Jul-11 12:52N 29°46' W 095°05'2 6.8
2018-Jul-11 12:30N 29°44' W 095°03'1 0.3
2018-Jul-11 10:17N 29°44' W 095°02'2 6.7
2018-Jul-11 09:59N 29°45' W 095°04'2 1.9
2018-Jul-11 08:42N 29°46' W 095°06'0 0.9
2018-Jul-11 08:22N 29°46' W 095°06'2 5.7
2018-Jul-11 08:00N 29°45' W 095°04'2 5.1
2018-Jul-11 07:30N 29°44' W 095°01'0 0.0
2018-Jul-11 06:59N 29°44' W 095°01'0 0.1
2018-Jul-11 03:56N 29°44' W 095°01'0 0.4
2018-Jul-11 03:21N 29°43' W 095°01'0 0.2
2018-Jul-11 02:58N 29°43' W 095°01'3 6.3
2018-Jul-11 02:26N 29°46' W 095°04'2 4.5
2018-Jul-11 02:00N 29°47' W 095°04'2 0.6
2018-Jul-10 22:05N 29°46' W 095°06'0 0.1
2018-Jul-10 21:58N 29°46' W 095°06'0 0.0
2018-Jul-10 19:07N 29°46' W 095°06'2 6.3
2018-Jul-10 18:48N 29°45' W 095°04'2 6.8
2018-Jul-10 18:30N 29°44' W 095°02'1 0.8
2018-Jul-10 17:30N 29°44' W 095°01'0 0.5
2018-Jul-10 16:59N 29°44' W 095°01'0 0.0
2018-Jul-10 15:54N 29°44' W 095°01'0 0.0
2018-Jul-10 15:30N 29°44' W 095°01'0 0.0
2018-Jul-10 15:00N 29°44' W 095°01'0 0.0
2018-Jul-10 14:30N 29°44' W 095°01'0 0.0
2018-Jul-10 14:00N 29°44' W 095°01'0 0.0
2018-Jul-10 13:30N 29°44' W 095°01'0 0.1
2018-Jul-10 12:05N 29°44' W 095°01'1 0.2
2018-Jul-10 09:36N 29°44' W 095°02'1 7.4
2018-Jul-10 09:28N 29°44' W 095°03'3 6.6
2018-Jul-10 08:59N 29°46' W 095°06'0 0.5
2018-Jul-10 08:21N 29°46' W 095°06'2 6.6
2018-Jul-10 08:00N 29°45' W 095°04'2 0.6
2018-Jul-10 04:18N 29°44' W 095°02'2 6.2
2018-Jul-10 03:59N 29°44' W 095°04'3 5.4
2018-Jul-10 03:30N 29°47' W 095°04'0 0.8
2018-Jul-10 03:00N 29°47' W 095°04'2 1.0
2018-Jul-10 01:13N 29°46' W 095°05'1 2.7
2018-Jul-10 00:56N 29°46' W 095°06'0 0.5
2018-Jul-10 00:24N 29°46' W 095°06'1 0.3
2018-Jul-09 20:20N 29°46' W 095°05'2 6.2
2018-Jul-09 20:00N 29°44' W 095°03'3 5.6
2018-Jul-09 19:30N 29°42' W 095°01'3 5.6
2018-Jul-09 19:00N 29°41' W 094°58'3 3.9
2018-Jul-09 18:19N 29°42' W 094°55'1 0.4
2018-Jul-09 15:36N 29°42' W 094°56'1 4.0
2018-Jul-09 15:28N 29°42' W 094°56'1 2.3
2018-Jul-09 15:00N 29°41' W 094°55'3 5.3
2018-Jul-09 14:23N 29°41' W 094°59'3 7.1
2018-Jul-09 14:00N 29°43' W 095°01'5 0.6
2018-Jul-09 05:41N 29°46' W 095°06'1 1.3
2018-Jul-09 04:38N 29°45' W 095°06'1 6.9
2018-Jul-09 04:29N 29°46' W 095°05'2 4.4
2018-Jul-09 04:00N 29°47' W 095°04'2 0.2
2018-Jul-08 19:38N 29°46' W 095°05'1 7.0
2018-Jul-08 19:30N 29°45' W 095°04'2 1.1
2018-Jul-08 17:59N 29°44' W 095°03'4 0.4
2018-Jul-08 08:33N 29°46' W 095°06'0 1.1
2018-Jul-08 08:30N 29°46' W 095°06'1 0.9
2018-Jul-08 07:02N 29°47' W 095°05'1 6.8
2018-Jul-08 06:56N 29°46' W 095°05'1 0.1
2018-Jul-07 20:14N 29°46' W 095°06'1 0.2
2018-Jul-07 17:05N 29°46' W 095°05'0 0.6
2018-Jul-07 16:18N 29°46' W 095°05'2 6.0
2018-Jul-07 16:00N 29°44' W 095°03'0 0.5
2018-Jul-07 15:00N 29°44' W 095°03'0 0.2
2018-Jul-07 14:28N 29°44' W 095°03'3 3.7
2018-Jul-07 13:40N 29°46' W 095°06'1 3.6
2018-Jul-07 13:30N 29°46' W 095°06'0 0.0
2018-Jul-07 13:00N 29°46' W 095°06'0 0.0
2018-Jul-07 12:30N 29°46' W 095°06'0 0.0
2018-Jul-07 12:00N 29°46' W 095°06'0 0.0
2018-Jul-07 11:30N 29°46' W 095°06'0 0.0
2018-Jul-07 10:12N 29°46' W 095°06'0 0.0
2018-Jul-07 07:57N 29°46' W 095°06'0 0.0
2018-Jul-07 07:24N 29°46' W 095°06'0 0.0
2018-Jul-07 06:55N 29°46' W 095°06'0 0.0
2018-Jul-07 05:02N 29°46' W 095°06'1 0.1
2018-Jul-06 19:59N 29°46' W 095°05'1 0.1
2018-Jul-06 13:53N 29°46' W 095°05'0 0.0
2018-Jul-06 13:03N 29°46' W 095°05'0 0.0
2018-Jul-06 12:59N 29°46' W 095°05'0 0.0
2018-Jul-06 12:00N 29°46' W 095°05'1 2.5
2018-Jul-06 11:25N 29°47' W 095°04'1 1.8
2018-Jul-06 10:58N 29°47' W 095°04'  
Track history (hours):
 
Tides and Currents Weather Stations Pressure Air Temp Water Temp Dewpoint Dewpoint Depression Visibility Wind Speed Wind Dir Waves Ship Positions

Kendall Alyse

Owner: The Tug Kendall Alyse, L.L.C., Sugar Land, TX. More information available from US FCC via Universal Licensing System and Coast Guard Vessel Documentation Center.

Last reported at 2018-Jul-16 09:42 UTC. Time now 2018-Jul-16 12:26 UTC.
Position N 29°44' W 095°01'.

Length 20 m.

MMSI: 357358340.

Date/timePositionNaut miles runAvg speedWind from/ knotsBaromVisibWave heightAir tempDewpointWater temp
2018-Jul-16 09:42N 29°44' W 095°01'1 5.0
2018-Jul-16 09:30N 29°44' W 095°03'4 7.0
2018-Jul-16 08:59N 29°46' W 095°06'0 0.9
2018-Jul-16 08:29N 29°46' W 095°06'2 4.4
2018-Jul-16 08:00N 29°45' W 095°04'2 3.9
2018-Jul-16 07:30N 29°44' W 095°02'1 0.3
2018-Jul-16 03:19N 29°44' W 095°01'0 0.2
2018-Jul-16 02:42N 29°44' W 095°01'0 0.0
2018-Jul-15 23:45N 29°44' W 095°01'0 0.0
2018-Jul-15 23:28N 29°44' W 095°01'0 0.0
2018-Jul-15 22:59N 29°44' W 095°01'0 0.0
2018-Jul-15 22:27N 29°44' W 095°01'1 3.2
2018-Jul-15 22:00N 29°44' W 095°03'4 5.8
2018-Jul-15 21:24N 29°46' W 095°06'0 0.0
2018-Jul-15 20:58N 29°46' W 095°06'2 5.1
2018-Jul-15 20:30N 29°45' W 095°04'2 0.7
2018-Jul-15 16:59N 29°44' W 095°01'0 0.0
2018-Jul-15 16:30N 29°44' W 095°01'0 0.0
2018-Jul-15 15:57N 29°44' W 095°01'0 0.0
2018-Jul-15 15:30N 29°44' W 095°01'0 0.0
2018-Jul-15 14:46N 29°44' W 095°01'0 0.0
2018-Jul-15 14:19N 29°44' W 095°01'0 0.0
2018-Jul-15 13:54N 29°44' W 095°01'0 0.0
2018-Jul-15 13:29N 29°44' W 095°01'0 0.0
2018-Jul-15 13:00N 29°44' W 095°01'0 0.0
2018-Jul-15 12:30N 29°44' W 095°01'0 0.0
2018-Jul-15 11:59N 29°44' W 095°01'0 0.0
2018-Jul-15 11:29N 29°44' W 095°01'0 0.0
2018-Jul-15 11:00N 29°44' W 095°01'0 0.0
2018-Jul-15 10:30N 29°44' W 095°01'0 0.0
2018-Jul-15 09:59N 29°44' W 095°01'2 2.7
2018-Jul-15 09:21N 29°44' W 095°03'3 3.3
2018-Jul-15 08:23N 29°46' W 095°06'1 3.8
2018-Jul-15 08:00N 29°46' W 095°04'2 4.6
2018-Jul-15 07:29N 29°44' W 095°03'1 1.5
2018-Jul-15 06:43N 29°44' W 095°01'1 2.3
2018-Jul-15 06:29N 29°43' W 095°01'0 0.5
2018-Jul-15 05:59N 29°43' W 095°01'1 0.9
2018-Jul-15 05:23N 29°44' W 095°01'0 0.0
2018-Jul-15 04:47N 29°44' W 095°01'0 0.0
2018-Jul-15 03:06N 29°44' W 095°01'0 0.0
2018-Jul-14 23:38N 29°44' W 095°01'1 5.4
2018-Jul-14 23:27N 29°44' W 095°02'4 1.6
2018-Jul-14 20:59N 29°46' W 095°06'3 5.5
2018-Jul-14 20:28N 29°44' W 095°04'2 0.7
2018-Jul-14 17:36N 29°44' W 095°01'0 0.2
2018-Jul-14 16:52N 29°44' W 095°01'0 0.1
2018-Jul-14 09:57N 29°44' W 095°02'3 6.6
2018-Jul-14 09:30N 29°46' W 095°04'1 2.8
2018-Jul-14 08:59N 29°46' W 095°06'3 6.4
2018-Jul-14 08:29N 29°44' W 095°03'2 0.1
2018-Jul-13 19:17N 29°44' W 095°01'1 1.0
2018-Jul-13 18:37N 29°44' W 095°02'1 5.3
2018-Jul-13 18:24N 29°44' W 095°03'2 0.8
2018-Jul-13 15:56N 29°46' W 095°05'2 5.4
2018-Jul-13 15:30N 29°44' W 095°03'0 0.1
2018-Jul-13 11:12N 29°44' W 095°03'2 6.5
2018-Jul-13 10:52N 29°46' W 095°05'1 3.0
2018-Jul-13 10:30N 29°46' W 095°06'0 0.4
2018-Jul-13 09:49N 29°46' W 095°06'1 1.1
2018-Jul-13 08:40N 29°46' W 095°05'1 5.3
2018-Jul-13 08:30N 29°46' W 095°05'3 1.2
2018-Jul-13 06:17N 29°44' W 095°08'1 3.9
2018-Jul-13 05:54N 29°45' W 095°06'2 3.8
2018-Jul-13 05:28N 29°46' W 095°05'2 4.0
2018-Jul-13 05:00N 29°44' W 095°03'0 0.0
2018-Jul-12 22:09N 29°44' W 095°03'3 3.7
2018-Jul-12 21:12N 29°46' W 095°06'2 5.8
2018-Jul-12 20:52N 29°45' W 095°04'3 0.4
2018-Jul-12 13:12N 29°44' W 095°01'0 0.2
2018-Jul-12 12:40N 29°44' W 095°01'0 0.1
2018-Jul-12 10:04N 29°44' W 095°02'1 6.8
2018-Jul-12 09:58N 29°44' W 095°02'3 6.3
2018-Jul-12 09:30N 29°46' W 095°05'1 1.4
2018-Jul-12 08:51N 29°46' W 095°06'1 1.3
2018-Jul-12 08:01N 29°45' W 095°06'0 5.8
2018-Jul-12 07:59N 29°45' W 095°06'1 0.4
2018-Jul-12 05:46N 29°44' W 095°07'1 1.0
2018-Jul-12 04:47N 29°44' W 095°08'0 0.7
2018-Jul-12 04:27N 29°44' W 095°08'2 3.4
2018-Jul-12 03:56N 29°45' W 095°06'3 4.9
2018-Jul-12 03:26N 29°47' W 095°04'3 0.5
2018-Jul-11 21:45N 29°45' W 095°06'1 0.2
2018-Jul-11 16:09N 29°44' W 095°08'0 2.4
2018-Jul-11 15:59N 29°44' W 095°07'2 3.6
2018-Jul-11 15:29N 29°45' W 095°06'1 2.7
2018-Jul-11 14:56N 29°47' W 095°05'1 1.1
2018-Jul-11 13:50N 29°47' W 095°04'0 0.0
2018-Jul-11 13:29N 29°47' W 095°04'2 3.0
2018-Jul-11 12:52N 29°46' W 095°05'2 6.8
2018-Jul-11 12:30N 29°44' W 095°03'1 0.3
2018-Jul-11 10:17N 29°44' W 095°02'2 6.7
2018-Jul-11 09:59N 29°45' W 095°04'2 1.9
2018-Jul-11 08:42N 29°46' W 095°06'0 0.9
2018-Jul-11 08:22N 29°46' W 095°06'2 5.7
2018-Jul-11 08:00N 29°45' W 095°04'2 5.1
2018-Jul-11 07:30N 29°44' W 095°01'0 0.0
2018-Jul-11 06:59N 29°44' W 095°01'0 0.1
2018-Jul-11 03:56N 29°44' W 095°01'0 0.4
2018-Jul-11 03:21N 29°43' W 095°01'0 0.2
2018-Jul-11 02:58N 29°43' W 095°01'3 6.3
2018-Jul-11 02:26N 29°46' W 095°04'2 4.5
2018-Jul-11 02:00N 29°47' W 095°04'2 0.6
2018-Jul-10 22:05N 29°46' W 095°06'0 0.1
2018-Jul-10 21:58N 29°46' W 095°06'0 0.0
2018-Jul-10 19:07N 29°46' W 095°06'2 6.3
2018-Jul-10 18:48N 29°45' W 095°04'2 6.8
2018-Jul-10 18:30N 29°44' W 095°02'1 0.8
2018-Jul-10 17:30N 29°44' W 095°01'0 0.5
2018-Jul-10 16:59N 29°44' W 095°01'0 0.0
2018-Jul-10 15:54N 29°44' W 095°01'0 0.0
2018-Jul-10 15:30N 29°44' W 095°01'0 0.0
2018-Jul-10 15:00N 29°44' W 095°01'0 0.0
2018-Jul-10 14:30N 29°44' W 095°01'0 0.0
2018-Jul-10 14:00N 29°44' W 095°01'0 0.0
2018-Jul-10 13:30N 29°44' W 095°01'0 0.1
2018-Jul-10 12:05N 29°44' W 095°01'1 0.2
2018-Jul-10 09:36N 29°44' W 095°02'1 7.4
2018-Jul-10 09:28N 29°44' W 095°03'3 6.6
2018-Jul-10 08:59N 29°46' W 095°06'0 0.5
2018-Jul-10 08:21N 29°46' W 095°06'2 6.6
2018-Jul-10 08:00N 29°45' W 095°04'2 0.6
2018-Jul-10 04:18N 29°44' W 095°02'2 6.2
2018-Jul-10 03:59N 29°44' W 095°04'3 5.4
2018-Jul-10 03:30N 29°47' W 095°04'0 0.8
2018-Jul-10 03:00N 29°47' W 095°04'2 1.0
2018-Jul-10 01:13N 29°46' W 095°05'1 2.7
2018-Jul-10 00:56N 29°46' W 095°06'0 0.5
2018-Jul-10 00:24N 29°46' W 095°06'1 0.3
2018-Jul-09 20:20N 29°46' W 095°05'2 6.2
2018-Jul-09 20:00N 29°44' W 095°03'3 5.6
2018-Jul-09 19:30N 29°42' W 095°01'3 5.6
2018-Jul-09 19:00N 29°41' W 094°58'3 3.9
2018-Jul-09 18:19N 29°42' W 094°55'1 0.4
2018-Jul-09 15:36N 29°42' W 094°56'1 4.0
2018-Jul-09 15:28N 29°42' W 094°56'1 2.3
2018-Jul-09 15:00N 29°41' W 094°55'3 5.3
2018-Jul-09 14:23N 29°41' W 094°59'3 7.1
2018-Jul-09 14:00N 29°43' W 095°01'5 0.6
2018-Jul-09 05:41N 29°46' W 095°06'1 1.3
2018-Jul-09 04:38N 29°45' W 095°06'1 6.9
2018-Jul-09 04:29N 29°46' W 095°05'2 4.4
2018-Jul-09 04:00N 29°47' W 095°04'2 0.2
2018-Jul-08 19:38N 29°46' W 095°05'1 7.0
2018-Jul-08 19:30N 29°45' W 095°04'2 1.1
2018-Jul-08 17:59N 29°44' W 095°03'4 0.4
2018-Jul-08 08:33N 29°46' W 095°06'0 1.1
2018-Jul-08 08:30N 29°46' W 095°06'1 0.9
2018-Jul-08 07:02N 29°47' W 095°05'1 6.8
2018-Jul-08 06:56N 29°46' W 095°05'1 0.1
2018-Jul-07 20:14N 29°46' W 095°06'1 0.2
2018-Jul-07 17:05N 29°46' W 095°05'0 0.6
2018-Jul-07 16:18N 29°46' W 095°05'2 6.0
2018-Jul-07 16:00N 29°44' W 095°03'0 0.5
2018-Jul-07 15:00N 29°44' W 095°03'0 0.2
2018-Jul-07 14:28N 29°44' W 095°03'3 3.7
2018-Jul-07 13:40N 29°46' W 095°06'1 3.6
2018-Jul-07 13:30N 29°46' W 095°06'0 0.0
2018-Jul-07 13:00N 29°46' W 095°06'0 0.0
2018-Jul-07 12:30N 29°46' W 095°06'0 0.0
2018-Jul-07 12:00N 29°46' W 095°06'0 0.0
2018-Jul-07 11:30N 29°46' W 095°06'0 0.0
2018-Jul-07 10:12N 29°46' W 095°06'0 0.0
2018-Jul-07 07:57N 29°46' W 095°06'0 0.0
2018-Jul-07 07:24N 29°46' W 095°06'0 0.0
2018-Jul-07 06:55N 29°46' W 095°06'0 0.0
2018-Jul-07 05:02N 29°46' W 095°06'1 0.1
2018-Jul-06 19:59N 29°46' W 095°05'1 0.1
2018-Jul-06 13:53N 29°46' W 095°05'0 0.0
2018-Jul-06 13:03N 29°46' W 095°05'0 0.0
2018-Jul-06 12:59N 29°46' W 095°05'0 0.0
2018-Jul-06 12:00N 29°46' W 095°05'1 2.5
2018-Jul-06 11:25N 29°47' W 095°04'1 1.8
2018-Jul-06 10:58N 29°47' W 095°04'  

Dump ship's entire track history